Time;durP1;ratioP1;P1;durP2;ratioP2;P2;SDS_P1;SDS_P2;PMS_P1;PMS_P2;Temp;Humidity;BMP_temperature;BMP_pressure;BME280_temperature;BME280_humidity;BME280_pressure;Samples;Min_cycle;Max_cycle;Signal;HPM_P1;HPM_P2
2022/04/24 00:01:25;;;;;;;10.10;4.65;;;8.90;99.90;;;;;;5088621;28;20108;-39
2022/04/24 00:03:51;;;;;;;10.90;4.40;;;8.80;99.90;;;;;;5086277;28;20134;-39
2022/04/24 00:06:16;;;;;;;7.95;4.20;;;8.80;99.90;;;;;;5088482;28;20059;-39
2022/04/24 00:08:42;;;;;;;4.47;3.42;;;8.80;99.90;;;;;;5088326;28;20228;-40
2022/04/24 00:11:07;;;;;;;5.72;4.22;;;8.80;99.90;;;;;;5088642;28;20024;-39
2022/04/24 00:13:38;;;;;;;6.57;3.92;;;8.70;99.90;;;;;;5087618;28;20020;-40
2022/04/24 00:16:05;;;;;;;5.85;4.10;;;8.60;99.90;;;;;;5096792;28;20111;-39
2022/04/24 00:18:30;;;;;;;6.55;4.88;;;8.60;99.90;;;;;;5106645;28;20416;-39
2022/04/24 00:20:56;;;;;;;7.90;4.75;;;8.60;99.90;;;;;;5107376;28;20036;-37
2022/04/24 00:23:22;;;;;;;6.80;4.50;;;8.50;99.90;;;;;;5108120;28;20039;-38
2022/04/24 00:25:48;;;;;;;4.93;3.90;;;8.50;99.90;;;;;;5108719;28;20023;-38
2022/04/24 00:28:14;;;;;;;8.88;5.00;;;8.50;99.90;;;;;;5109026;28;20123;-38
2022/04/24 00:30:39;;;;;;;6.70;4.35;;;8.50;99.90;;;;;;5109003;28;20039;-38
2022/04/24 00:33:05;;;;;;;5.50;4.00;;;8.40;99.90;;;;;;5108274;28;20473;-38
2022/04/24 00:35:31;;;;;;;5.85;4.00;;;8.50;99.90;;;;;;5108576;28;20032;-38
2022/04/24 00:37:57;;;;;;;9.63;4.22;;;8.40;99.90;;;;;;5108557;28;20377;-38
2022/04/24 00:40:23;;;;;;;10.68;4.43;;;8.40;99.90;;;;;;5109021;28;20031;-38
2022/04/24 00:42:49;;;;;;;7.45;4.90;;;8.40;99.90;;;;;;5106717;28;20384;-38
2022/04/24 00:45:15;;;;;;;5.90;4.28;;;8.40;99.90;;;;;;5097982;28;20031;-39
2022/04/24 00:47:43;;;;;;;7.07;4.72;;;8.40;99.90;;;;;;5100819;28;20404;-39
2022/04/24 00:50:09;;;;;;;5.20;3.97;;;8.30;99.90;;;;;;5107251;28;20506;-39
2022/04/24 00:52:35;;;;;;;7.07;4.10;;;8.30;99.90;;;;;;5106741;28;20100;-39
2022/04/24 00:55:01;;;;;;;7.15;4.65;;;8.30;99.90;;;;;;5108492;28;20507;-39
2022/04/24 00:57:27;;;;;;;8.00;4.65;;;8.30;99.90;;;;;;5108671;28;20032;-39
2022/04/24 00:59:52;;;;;;;9.82;4.82;;;8.30;99.90;;;;;;5106752;28;20031;-39
2022/04/24 01:02:18;;;;;;;8.18;4.50;;;8.20;99.90;;;;;;5107623;28;20028;-39
2022/04/24 01:04:44;;;;;;;7.85;4.45;;;8.20;99.90;;;;;;5107042;28;20042;-39
2022/04/24 01:07:10;;;;;;;7.25;4.25;;;8.10;99.90;;;;;;5108250;28;20028;-39
2022/04/24 01:09:36;;;;;;;7.97;4.70;;;8.10;99.90;;;;;;5108516;28;20027;-39
2022/04/24 01:12:03;;;;;;;7.03;4.53;;;8.00;99.90;;;;;;5107709;28;20024;-39
2022/04/24 01:14:30;;;;;;;6.60;4.72;;;8.10;99.90;;;;;;5099910;28;20016;-39
2022/04/24 01:16:56;;;;;;;7.03;4.65;;;8.00;99.90;;;;;;5103771;28;20020;-39
2022/04/24 01:19:24;;;;;;;6.47;5.07;;;8.00;99.90;;;;;;5111926;28;20069;-39
2022/04/24 01:21:50;;;;;;;8.50;4.95;;;8.10;99.90;;;;;;5111321;28;20030;-39
2022/04/24 01:24:21;;;;;;;6.88;4.50;;;8.00;99.90;;;;;;5111910;28;20102;-39
2022/04/24 01:26:46;;;;;;;7.72;5.55;;;8.00;99.90;;;;;;5111765;28;20042;-39
2022/04/24 01:29:12;;;;;;;7.70;4.72;;;8.00;99.90;;;;;;5111515;28;20027;-39
2022/04/24 01:31:38;;;;;;;7.70;4.93;;;7.90;99.90;;;;;;5111426;28;20059;-39
2022/04/24 01:34:04;;;;;;;7.40;5.32;;;7.90;99.90;;;;;;5111764;28;20054;-39
2022/04/24 01:36:30;;;;;;;10.57;5.25;;;7.90;99.90;;;;;;5111683;28;20464;-39
2022/04/24 01:38:55;;;;;;;7.35;5.00;;;7.90;99.90;;;;;;5084508;28;20032;-39
2022/04/24 01:41:21;;;;;;;8.68;4.85;;;7.90;99.90;;;;;;5079888;28;20103;-39
2022/04/24 01:43:47;;;;;;;8.02;5.10;;;7.80;99.90;;;;;;5076596;28;20517;-39
2022/04/24 01:46:13;;;;;;;6.72;4.82;;;7.70;99.90;;;;;;5083388;28;20474;-39
2022/04/24 01:48:38;;;;;;;10.27;5.32;;;7.70;99.90;;;;;;5082660;28;20497;-39
2022/04/24 01:51:05;;;;;;;9.32;4.72;;;7.70;99.90;;;;;;5079365;28;20100;-39
2022/04/24 01:53:32;;;;;;;6.95;4.82;;;7.60;99.90;;;;;;5079616;28;20016;-39
2022/04/24 01:55:59;;;;;;;11.43;5.38;;;7.60;99.90;;;;;;5081640;28;20075;-39
2022/04/24 01:58:25;;;;;;;6.90;4.80;;;7.60;99.90;;;;;;5080318;28;20016;-39
2022/04/24 02:00:52;;;;;;;7.20;4.57;;;7.60;99.90;;;;;;5080061;28;20024;-39
2022/04/24 02:03:18;;;;;;;8.00;4.88;;;7.50;99.90;;;;;;5078722;28;20038;-39
2022/04/24 02:05:44;;;;;;;5.80;4.30;;;7.60;99.90;;;;;;5081055;28;20032;-39
2022/04/24 02:08:10;;;;;;;8.15;4.85;;;7.50;99.90;;;;;;5079877;28;20453;-39
2022/04/24 02:10:35;;;;;;;6.07;4.50;;;7.50;99.90;;;;;;5079983;28;20029;-39
2022/04/24 02:13:01;;;;;;;7.50;5.03;;;7.50;99.90;;;;;;5078646;28;20040;-39
2022/04/24 02:15:26;;;;;;;6.95;4.47;;;7.50;99.90;;;;;;5083358;28;20265;-38
2022/04/24 02:17:52;;;;;;;5.18;4.35;;;7.50;99.90;;;;;;5081358;28;20158;-38
2022/04/24 02:20:18;;;;;;;8.13;5.20;;;7.50;99.90;;;;;;5081349;28;20067;-39
2022/04/24 02:22:43;;;;;;;7.60;4.97;;;7.50;99.90;;;;;;5080612;28;20075;-39
2022/04/24 02:25:09;;;;;;;9.32;5.30;;;7.50;99.90;;;;;;5079797;28;20020;-39
2022/04/24 02:27:34;;;;;;;8.23;4.85;;;7.40;99.90;;;;;;5080425;28;20567;-39
2022/04/24 02:30:00;;;;;;;8.52;5.47;;;7.40;99.90;;;;;;5077015;28;20028;-39
2022/04/24 02:32:26;;;;;;;7.10;4.65;;;7.40;99.90;;;;;;5079475;28;20031;-39
2022/04/24 02:34:51;;;;;;;11.35;4.95;;;7.30;99.90;;;;;;5080215;28;20078;-39
2022/04/24 02:37:17;;;;;;;9.13;4.70;;;7.30;99.90;;;;;;5078376;28;20028;-37
2022/04/24 02:39:43;;;;;;;7.85;4.50;;;7.30;99.90;;;;;;5078693;28;20034;-37
2022/04/24 02:42:09;;;;;;;7.53;4.53;;;7.30;99.90;;;;;;5078863;28;20524;-37
2022/04/24 02:44:34;;;;;;;6.10;4.55;;;7.20;99.90;;;;;;5079671;28;20039;-37
2022/04/24 02:47:01;;;;;;;7.75;4.90;;;7.20;99.90;;;;;;5082611;28;20024;-37
2022/04/24 02:49:26;;;;;;;7.13;4.50;;;7.10;99.90;;;;;;5079687;28;20030;-37
2022/04/24 02:51:51;;;;;;;8.85;5.25;;;7.10;99.90;;;;;;5077972;28;20025;-37
2022/04/24 02:54:17;;;;;;;7.57;4.30;;;7.10;99.90;;;;;;5077974;28;20016;-37
2022/04/24 02:56:42;;;;;;;10.18;5.72;;;7.10;99.90;;;;;;5079562;28;20499;-37
2022/04/24 02:59:09;;;;;;;10.25;4.97;;;7.10;99.90;;;;;;5078792;28;20473;-39
2022/04/24 03:01:35;;;;;;;8.20;5.18;;;7.00;99.90;;;;;;5077479;28;20470;-38
2022/04/24 03:04:00;;;;;;;7.47;4.78;;;7.00;99.90;;;;;;5079872;28;20043;-38
2022/04/24 03:06:26;;;;;;;10.15;5.47;;;6.90;99.90;;;;;;5076616;28;20123;-38
2022/04/24 03:08:52;;;;;;;7.22;4.72;;;6.90;99.90;;;;;;5078042;28;20200;-38
2022/04/24 03:11:17;;;;;;;9.90;5.05;;;7.00;99.90;;;;;;5077638;28;20020;-37
2022/04/24 03:13:43;;;;;;;10.88;4.57;;;6.90;99.90;;;;;;5086530;28;20497;-38
2022/04/24 03:16:09;;;;;;;7.32;4.95;;;6.90;99.90;;;;;;5093591;28;20032;-38
2022/04/24 03:18:34;;;;;;;7.20;4.93;;;6.90;99.90;;;;;;5109617;28;20473;-38
2022/04/24 03:21:00;;;;;;;12.35;5.07;;;6.80;99.90;;;;;;5109755;28;20034;-38
2022/04/24 03:23:25;;;;;;;8.10;5.10;;;6.80;99.90;;;;;;5108623;28;20027;-38
2022/04/24 03:25:51;;;;;;;10.43;5.43;;;6.80;99.90;;;;;;5109318;27;20035;-37
2022/04/24 03:28:17;;;;;;;8.85;5.43;;;6.80;99.90;;;;;;5109410;28;20091;-37
2022/04/24 03:30:43;;;;;;;9.70;5.13;;;6.80;99.90;;;;;;5108008;28;20182;-38
2022/04/24 03:33:09;;;;;;;9.88;5.40;;;6.80;99.90;;;;;;5108632;28;20016;-38
2022/04/24 03:35:34;;;;;;;11.10;5.18;;;6.70;99.90;;;;;;5109008;28;20020;-39
2022/04/24 03:38:00;;;;;;;10.38;5.75;;;6.70;99.90;;;;;;5108813;28;20499;-38
2022/04/24 03:40:26;;;;;;;7.35;5.13;;;6.70;99.90;;;;;;5109199;28;20035;-38
2022/04/24 03:42:51;;;;;;;8.07;5.18;;;6.70;99.90;;;;;;5108927;28;20112;-37
2022/04/24 03:45:17;;;;;;;6.93;5.03;;;6.70;99.90;;;;;;5095700;28;20027;-37
2022/04/24 03:47:43;;;;;;;11.23;5.50;;;6.70;99.90;;;;;;5101768;28;20031;-37
2022/04/24 03:50:09;;;;;;;5.13;4.22;;;6.60;99.90;;;;;;5109302;28;20099;-38
2022/04/24 03:52:35;;;;;;;7.00;5.43;;;6.60;99.90;;;;;;5109097;27;20088;-37
2022/04/24 03:55:01;;;;;;;10.45;5.20;;;6.60;99.90;;;;;;5109116;28;20046;-37
2022/04/24 03:57:26;;;;;;;8.85;5.60;;;6.50;99.90;;;;;;5109146;28;20015;-37
2022/04/24 03:59:52;;;;;;;8.15;5.47;;;6.50;99.90;;;;;;5108660;28;20062;-37
2022/04/24 04:02:18;;;;;;;7.70;5.03;;;6.60;99.90;;;;;;5108233;28;20091;-38
2022/04/24 04:04:43;;;;;;;6.47;4.95;;;6.50;99.90;;;;;;5109056;28;20254;-38
2022/04/24 04:07:09;;;;;;;7.97;5.28;;;6.50;99.90;;;;;;5107787;28;20027;-37
2022/04/24 04:09:34;;;;;;;8.02;5.10;;;6.50;99.90;;;;;;5108618;28;20019;-38
2022/04/24 04:12:00;;;;;;;9.57;5.20;;;6.50;99.90;;;;;;5108082;28;20024;-38
2022/04/24 04:14:25;;;;;;;9.55;5.43;;;6.40;99.90;;;;;;5097597;28;20031;-38
2022/04/24 04:16:51;;;;;;;8.95;5.43;;;6.40;99.90;;;;;;5100535;28;20012;-37
2022/04/24 04:19:17;;;;;;;13.32;5.70;;;6.40;99.90;;;;;;5108869;28;20125;-37
2022/04/24 04:21:43;;;;;;;10.50;5.43;;;6.40;99.90;;;;;;5108020;28;20028;-37
2022/04/24 04:24:09;;;;;;;8.65;5.20;;;6.40;99.90;;;;;;5107456;28;20088;-38
2022/04/24 04:26:36;;;;;;;7.72;5.75;;;6.40;99.90;;;;;;5107500;28;20102;-37
2022/04/24 04:29:03;;;;;;;8.45;4.78;;;6.40;99.90;;;;;;5107126;28;20055;-37
2022/04/24 04:31:28;;;;;;;7.97;5.20;;;6.40;99.90;;;;;;5108159;28;20032;-38
2022/04/24 04:33:54;;;;;;;9.38;5.28;;;6.50;99.90;;;;;;5108667;28;20019;-37
2022/04/24 04:36:21;;;;;;;8.98;5.13;;;6.40;99.90;;;;;;5108740;28;20047;-38
2022/04/24 04:38:46;;;;;;;9.40;5.20;;;6.40;99.90;;;;;;5108699;28;20019;-38
2022/04/24 04:41:12;;;;;;;7.93;4.93;;;6.40;99.90;;;;;;5108915;28;20020;-38
2022/04/24 04:43:38;;;;;;;6.72;5.03;;;6.50;99.90;;;;;;5106148;28;20042;-38
2022/04/24 04:46:04;;;;;;;9.65;5.95;;;6.40;99.90;;;;;;5074987;28;20033;-38
2022/04/24 04:48:29;;;;;;;5.55;4.53;;;6.50;99.90;;;;;;5079564;28;20017;-38
2022/04/24 04:50:55;;;;;;;6.72;5.03;;;6.50;99.90;;;;;;5085839;28;20106;-38
2022/04/24 04:53:21;;;;;;;12.93;4.75;;;6.60;99.90;;;;;;5091800;28;20118;-38
2022/04/24 04:55:47;;;;;;;7.18;4.47;;;6.60;99.90;;;;;;5091870;28;20106;-38
2022/04/24 04:58:13;;;;;;;9.82;5.20;;;6.60;99.90;;;;;;5091918;28;20028;-38
2022/04/24 05:00:38;;;;;;;7.55;4.63;;;6.60;99.90;;;;;;5091522;28;20028;-38
2022/04/24 05:03:04;;;;;;;10.65;5.15;;;6.60;99.90;;;;;;5091220;28;20107;-38
2022/04/24 05:05:29;;;;;;;7.00;4.60;;;6.60;99.90;;;;;;5092067;28;20097;-38
2022/04/24 05:07:55;;;;;;;12.30;5.80;;;6.60;99.90;;;;;;5091537;28;20028;-38
2022/04/24 05:10:20;;;;;;;6.85;5.10;;;6.70;99.90;;;;;;5091796;28;20093;-38
2022/04/24 05:12:46;;;;;;;6.65;4.80;;;6.70;99.90;;;;;;5090976;28;20063;-38
2022/04/24 05:15:13;;;;;;;9.95;5.28;;;6.80;99.90;;;;;;5095108;28;20095;-38
2022/04/24 05:17:41;;;;;;;11.63;4.97;;;6.90;99.90;;;;;;5104236;28;20035;-38
2022/04/24 05:20:09;;;;;;;7.05;4.55;;;6.90;99.90;;;;;;5112131;28;20023;-38
2022/04/24 05:22:34;;;;;;;7.80;4.45;;;7.00;99.90;;;;;;5095638;28;20474;-38
2022/04/24 05:25:00;;;;;;;8.40;4.57;;;7.00;99.90;;;;;;5079475;28;20039;-38
2022/04/24 05:27:26;;;;;;;9.93;5.10;;;7.10;99.90;;;;;;5082667;28;20028;-38
2022/04/24 05:29:52;;;;;;;11.85;4.93;;;7.10;99.90;;;;;;5091349;28;20634;-38
2022/04/24 05:32:17;;;;;;;6.10;3.88;;;7.20;99.90;;;;;;5090736;28;20106;-38
2022/04/24 05:34:43;;;;;;;8.50;5.10;;;7.20;99.90;;;;;;5091274;28;20496;-38
2022/04/24 05:37:09;;;;;;;8.82;4.57;;;7.30;99.90;;;;;;5091064;28;20024;-38
2022/04/24 05:39:35;;;;;;;9.30;5.07;;;7.30;99.90;;;;;;5090947;28;20410;-38
2022/04/24 05:42:01;;;;;;;11.90;4.72;;;7.30;99.90;;;;;;5078377;28;20102;-38
2022/04/24 05:44:26;;;;;;;8.25;5.00;;;7.30;99.90;;;;;;5082058;28;20070;-38
2022/04/24 05:46:52;;;;;;;8.73;4.65;;;7.40;99.90;;;;;;5085315;28;20554;-38
2022/04/24 05:49:18;;;;;;;10.32;4.43;;;7.40;99.90;;;;;;5081325;28;20059;-38
2022/04/24 05:51:43;;;;;;;9.45;5.18;;;7.50;99.90;;;;;;5078926;28;20028;-38
2022/04/24 05:54:10;;;;;;;13.93;5.05;;;7.50;99.90;;;;;;5078489;28;20078;-38
2022/04/24 05:56:35;;;;;;;7.93;5.32;;;7.60;99.90;;;;;;5079127;28;20086;-38
2022/04/24 05:59:01;;;;;;;5.05;3.88;;;7.70;99.90;;;;;;5079126;28;20028;-39
2022/04/24 06:01:26;;;;;;;6.35;4.43;;;7.70;99.90;;;;;;5078713;28;20044;-39
2022/04/24 06:03:53;;;;;;;8.57;4.25;;;7.80;99.90;;;;;;5078565;28;20504;-38
2022/04/24 06:06:18;;;;;;;8.10;4.60;;;7.90;99.90;;;;;;5077875;28;20029;-38
2022/04/24 06:08:44;;;;;;;12.52;4.72;;;7.90;99.90;;;;;;5077931;28;20508;-43
2022/04/24 06:11:09;;;;;;;7.18;4.25;;;8.00;99.90;;;;;;5078422;28;20028;-38
2022/04/24 06:13:35;;;;;;;9.07;4.43;;;8.10;99.90;;;;;;5078727;28;20095;-38
2022/04/24 06:16:02;;;;;;;7.78;4.35;;;8.20;99.90;;;;;;5083877;28;20519;-38
2022/04/24 06:18:29;;;;;;;7.38;4.45;;;8.20;99.90;;;;;;5082999;28;20020;-38
2022/04/24 06:20:55;;;;;;;5.68;3.65;;;8.30;99.90;;;;;;5086197;28;20027;-38
2022/04/24 06:23:20;;;;;;;5.78;4.18;;;8.30;99.90;;;;;;5073384;28;20028;-38
2022/04/24 06:25:46;;;;;;;8.55;5.00;;;8.50;99.90;;;;;;5079067;28;20161;-38
2022/04/24 06:28:12;;;;;;;11.77;5.05;;;8.50;99.90;;;;;;5084310;28;20073;-38
2022/04/24 06:30:40;;;;;;;6.30;4.55;;;8.70;99.90;;;;;;5077775;28;20405;-39
2022/04/24 06:33:10;;;;;;;5.60;4.05;;;8.70;99.90;;;;;;5082541;28;20516;-38
2022/04/24 06:35:37;;;;;;;8.97;4.90;;;8.80;99.90;;;;;;5075843;28;20032;-38
2022/04/24 06:38:02;;;;;;;9.85;4.40;;;9.00;99.90;;;;;;5086003;28;20273;-38
2022/04/24 06:40:28;;;;;;;7.65;3.55;;;9.10;99.90;;;;;;5084421;28;20439;-38
2022/04/24 06:43:02;;;;;;;7.25;3.42;;;9.20;99.90;;;;;;5083678;28;20477;-38
2022/04/24 06:45:29;;;;;;;7.72;4.22;;;9.30;99.90;;;;;;5084699;28;20262;-39
2022/04/24 06:48:00;;;;;;;8.52;4.57;;;9.50;99.90;;;;;;5078948;28;20483;-39
2022/04/24 06:50:26;;;;;;;8.60;4.03;;;9.70;99.90;;;;;;5077213;28;20095;-39
2022/04/24 06:53:02;;;;;;;7.70;4.53;;;9.90;99.90;;;;;;5084178;28;20086;-39
2022/04/24 06:55:30;;;;;;;4.47;3.25;;;10.10;99.90;;;;;;5079575;28;20028;-39
2022/04/24 06:57:56;;;;;;;8.35;3.78;;;10.10;99.90;;;;;;5077247;28;20027;-39
2022/04/24 07:00:23;;;;;;;9.02;4.25;;;10.20;99.90;;;;;;5078197;28;20286;-39
2022/04/24 07:02:48;;;;;;;6.40;4.68;;;10.30;99.90;;;;;;5078083;28;20012;-39
2022/04/24 07:05:15;;;;;;;8.52;4.00;;;10.30;99.90;;;;;;5083023;28;20031;-39
2022/04/24 07:07:41;;;;;;;8.82;3.92;;;10.50;99.90;;;;;;5084320;28;20028;-39
2022/04/24 07:10:07;;;;;;;9.82;4.25;;;10.70;99.90;;;;;;5092280;28;20389;-39
2022/04/24 07:12:44;;;;;;;6.63;3.92;;;10.80;99.90;;;;;;5089935;28;20024;-39
2022/04/24 07:15:09;;;;;;;8.85;4.20;;;10.80;99.90;;;;;;5086092;28;20119;-39
2022/04/24 07:17:34;;;;;;;9.40;4.75;;;10.70;99.90;;;;;;5088486;28;20103;-39
2022/04/24 07:20:00;;;;;;;5.72;4.07;;;10.70;99.90;;;;;;5088785;28;20097;-39
2022/04/24 07:22:25;;;;;;;6.72;4.32;;;10.60;99.90;;;;;;5087876;28;20030;-40
2022/04/24 07:24:51;;;;;;;7.25;4.20;;;10.70;99.90;;;;;;5088216;28;20024;-39
2022/04/24 07:27:16;;;;;;;8.52;4.50;;;10.60;99.90;;;;;;5087138;28;20021;-40
2022/04/24 07:29:42;;;;;;;7.82;4.22;;;10.60;99.90;;;;;;5067756;28;20062;-39
2022/04/24 07:32:08;;;;;;;10.98;4.35;;;10.70;99.90;;;;;;5067889;28;20074;-39
2022/04/24 07:34:33;;;;;;;9.75;4.78;;;11.00;99.90;;;;;;5068051;28;20385;-39
2022/04/24 07:36:59;;;;;;;6.53;4.60;;;11.00;99.90;;;;;;5068153;28;20016;-39
2022/04/24 07:39:24;;;;;;;7.65;4.75;;;11.10;99.90;;;;;;5085448;28;20500;-39
2022/04/24 07:41:50;;;;;;;14.65;5.38;;;11.10;99.90;;;;;;5101704;28;20038;-39
2022/04/24 07:44:15;;;;;;;10.32;5.30;;;11.00;99.90;;;;;;5101299;28;20283;-40
2022/04/24 07:46:42;;;;;;;9.02;4.80;;;10.90;99.90;;;;;;5093503;28;20020;-39
2022/04/24 07:49:08;;;;;;;10.48;5.45;;;11.00;99.90;;;;;;5104478;28;20484;-39
2022/04/24 07:51:33;;;;;;;7.00;4.78;;;11.00;99.90;;;;;;5106249;28;20058;-39
2022/04/24 07:53:59;;;;;;;7.72;4.40;;;11.10;99.90;;;;;;5107947;28;20027;-39
2022/04/24 07:56:25;;;;;;;8.15;4.75;;;11.10;99.90;;;;;;5087474;28;20024;-40
2022/04/24 07:58:50;;;;;;;8.18;4.78;;;11.40;99.90;;;;;;5084983;28;20012;-39
2022/04/24 08:01:17;;;;;;;11.40;6.25;;;11.80;99.90;;;;;;5100220;28;20020;-40
2022/04/24 08:03:43;;;;;;;14.35;5.72;;;12.20;99.70;;;;;;5094082;28;20048;-39
2022/04/24 08:06:08;;;;;;;13.00;5.88;;;12.30;99.10;;;;;;5068169;28;20111;-40
2022/04/24 08:08:34;;;;;;;7.45;4.93;;;12.40;98.60;;;;;;5067914;28;20143;-39
2022/04/24 08:11:00;;;;;;;8.07;5.03;;;12.60;99.20;;;;;;5071082;28;20024;-39
2022/04/24 08:13:26;;;;;;;8.20;4.47;;;13.20;98.00;;;;;;5082430;28;20024;-39
2022/04/24 08:15:53;;;;;;;10.60;5.18;;;14.30;96.30;;;;;;5090488;28;20084;-39
2022/04/24 08:18:20;;;;;;;11.02;5.05;;;15.50;93.80;;;;;;5106691;28;20337;-40
2022/04/24 08:20:46;;;;;;;5.97;4.20;;;16.80;90.70;;;;;;5108818;28;20070;-40
2022/04/24 08:23:12;;;;;;;8.30;5.20;;;17.50;86.00;;;;;;5107698;28;20391;-39
2022/04/24 08:25:39;;;;;;;8.90;5.80;;;17.80;80.80;;;;;;5111602;28;20114;-40
2022/04/24 08:28:10;;;;;;;6.07;4.10;;;17.20;77.70;;;;;;5112994;28;20476;-40
2022/04/24 08:30:40;;;;;;;7.47;5.00;;;16.90;80.00;;;;;;5112954;27;20031;-39
2022/04/24 08:33:06;;;;;;;11.43;4.97;;;16.60;80.80;;;;;;5112511;28;20026;-39
2022/04/24 08:35:32;;;;;;;8.80;5.25;;;17.10;80.50;;;;;;5112546;28;20091;-39
2022/04/24 08:37:58;;;;;;;10.02;5.03;;;17.20;80.00;;;;;;5112881;28;20161;-39
2022/04/24 08:40:24;;;;;;;10.48;5.43;;;18.00;78.70;;;;;;5112705;28;20032;-37
2022/04/24 08:42:51;;;;;;;7.45;4.25;;;19.20;72.80;;;;;;5112231;28;20027;-37
2022/04/24 08:45:17;;;;;;;7.25;5.07;;;20.10;71.10;;;;;;5107504;28;20073;-37
2022/04/24 08:47:44;;;;;;;6.10;4.53;;;20.80;70.00;;;;;;5105224;28;20028;-38
2022/04/24 08:50:10;;;;;;;6.60;4.35;;;22.00;65.40;;;;;;5112639;28;20361;-38
2022/04/24 08:52:37;;;;;;;10.23;5.35;;;22.20;59.70;;;;;;5111820;28;20043;-37
2022/04/24 08:55:03;;;;;;;7.47;4.13;;;22.90;59.50;;;;;;5112333;28;20476;-38
2022/04/24 08:57:32;;;;;;;7.72;5.18;;;22.70;57.50;;;;;;5112514;27;20032;-40
2022/04/24 08:59:59;;;;;;;7.78;4.90;;;22.70;56.20;;;;;;5110696;28;20020;-39
2022/04/24 09:02:25;;;;;;;7.07;4.95;;;22.40;57.10;;;;;;5111619;27;20030;-39
2022/04/24 09:04:53;;;;;;;8.55;6.45;;;22.10;57.60;;;;;;5112312;27;20024;-40
2022/04/24 09:07:19;;;;;;;7.38;5.43;;;21.70;58.00;;;;;;5112392;28;20110;-40
2022/04/24 09:09:47;;;;;;;10.18;5.53;;;21.40;59.10;;;;;;5112194;28;20122;-39
2022/04/24 09:12:15;;;;;;;8.45;6.30;;;22.40;58.50;;;;;;5110175;28;20496;-40
2022/04/24 09:14:46;;;;;;;11.02;6.13;;;23.50;54.50;;;;;;5108021;28;20253;-40
2022/04/24 09:17:22;;;;;;;8.75;5.50;;;24.00;54.10;;;;;;5103608;28;20028;-40
2022/04/24 09:19:48;;;;;;;10.10;5.28;;;24.40;53.20;;;;;;5112407;28;20563;-40
2022/04/24 09:22:14;;;;;;;8.15;5.53;;;24.90;51.30;;;;;;5110294;28;20111;-40
2022/04/24 09:24:41;;;;;;;6.45;4.03;;;24.30;52.10;;;;;;5112243;28;20106;-40
2022/04/24 09:27:07;;;;;;;6.22;4.53;;;25.10;52.20;;;;;;5112382;28;20053;-40
2022/04/24 09:29:33;;;;;;;10.55;6.15;;;25.80;49.90;;;;;;5111813;28;20028;-44
2022/04/24 09:31:59;;;;;;;5.60;3.97;;;26.70;48.70;;;;;;5111463;28;20028;-40
2022/04/24 09:34:32;;;;;;;8.23;4.70;;;26.70;48.40;;;;;;5110538;28;20034;-40
2022/04/24 09:37:06;;;;;;;7.25;5.20;;;26.80;48.20;;;;;;5111234;28;20097;-40
2022/04/24 09:39:35;;;;;;;7.93;5.75;;;26.70;48.00;;;;;;5111715;28;20540;-40
2022/04/24 09:42:08;;;;;;;8.10;4.70;;;26.20;47.70;;;;;;5111079;28;20059;-41
2022/04/24 09:44:44;;;;;;;8.48;5.75;;;26.60;47.20;;;;;;5108936;28;20047;-39
2022/04/24 09:47:11;;;;;;;7.63;4.97;;;26.80;47.20;;;;;;5101530;28;20020;-39
2022/04/24 09:49:39;;;;;;;9.25;5.03;;;26.60;48.20;;;;;;5111328;28;20034;-40
2022/04/24 09:52:15;;;;;;;6.43;4.78;;;26.70;47.80;;;;;;5110920;28;20068;-39
2022/04/24 09:54:45;;;;;;;7.53;5.50;;;27.20;47.10;;;;;;5111524;28;20023;-40
2022/04/24 09:57:11;;;;;;;;;;;27.00;46.40;;;;;;5111980;28;20031;-39
2022/04/24 09:59:45;;;;;;;9.90;5.50;;;26.70;46.00;;;;;;5109495;28;20064;-39
2022/04/24 10:02:15;;;;;;;8.20;5.55;;;27.20;46.20;;;;;;5110516;28;20031;-40
2022/04/24 10:04:42;;;;;;;8.57;5.47;;;28.00;44.70;;;;;;5110037;28;20035;-39
2022/04/24 10:07:09;;;;;;;8.77;6.28;;;27.70;45.80;;;;;;5111115;28;20027;-39
2022/04/24 10:09:37;;;;;;;7.22;5.18;;;28.10;44.70;;;;;;5111138;28;20373;-39
2022/04/24 10:12:08;;;;;;;9.57;6.40;;;27.80;44.90;;;;;;5110843;28;20028;-41
2022/04/24 10:14:42;;;;;;;8.85;5.50;;;28.30;44.10;;;;;;5109863;28;20022;-39
2022/04/24 10:17:27;;;;;;;6.28;5.53;;;27.70;45.40;;;;;;5102660;28;20028;-40
2022/04/24 10:20:03;;;;;;;8.88;5.50;;;27.50;45.50;;;;;;5097627;28;20025;-39
2022/04/24 10:22:37;;;;;;;10.35;6.25;;;28.50;43.50;;;;;;5099537;28;20037;-39
2022/04/24 10:25:05;;;;;;;9.07;5.60;;;28.00;45.30;;;;;;5111048;28;20122;-39
2022/04/24 10:27:44;;;;;;;9.18;5.90;;;28.10;45.00;;;;;;5110840;28;20555;-39
2022/04/24 10:30:34;;;;;;;7.77;5.87;;;27.50;44.00;;;;;;5110642;28;20032;-39
2022/04/24 10:33:21;;;;;;;8.00;6.23;;;27.80;45.30;;;;;;5109807;28;20498;-39
2022/04/24 10:36:02;;;;;;;6.03;5.13;;;27.60;45.50;;;;;;5110532;28;20404;-39
2022/04/24 10:38:29;;;;;;;7.30;5.72;;;28.00;44.50;;;;;;5110582;28;20316;-38
2022/04/24 10:40:59;;;;;;;7.03;5.22;;;28.40;44.40;;;;;;5110862;28;20028;-39
2022/04/24 10:43:25;;;;;;;6.38;5.10;;;28.50;44.70;;;;;;5109600;28;20277;-39
2022/04/24 10:45:51;;;;;;;7.75;5.95;;;29.00;43.90;;;;;;5100075;28;20084;-40
2022/04/24 10:48:17;;;;;;;6.63;5.35;;;28.90;42.90;;;;;;5091218;28;20039;-40
2022/04/24 10:50:51;;;;;;;10.25;5.80;;;28.40;42.80;;;;;;5090072;28;20047;-40
2022/04/24 10:53:16;;;;;;;6.90;5.72;;;28.50;43.80;;;;;;5088048;28;20020;-42
2022/04/24 10:55:43;;;;;;;9.30;5.90;;;28.20;44.50;;;;;;5089902;28;20550;-40
2022/04/24 10:58:10;;;;;;;10.45;6.68;;;28.20;45.00;;;;;;5089691;28;20396;-40
2022/04/24 11:00:37;;;;;;;10.27;6.35;;;28.00;43.80;;;;;;5089447;28;20034;-40
2022/04/24 11:03:14;;;;;;;9.40;6.68;;;27.80;43.40;;;;;;5089104;28;20080;-40
2022/04/24 11:05:43;;;;;;;9.27;6.20;;;26.70;44.70;;;;;;5090067;28;20103;-40
2022/04/24 11:08:10;;;;;;;10.05;7.25;;;26.50;45.60;;;;;;5088150;28;20028;-40
2022/04/24 11:10:41;;;;;;;8.38;6.43;;;25.60;46.20;;;;;;5089509;28;20080;-39
2022/04/24 11:13:11;;;;;;;11.50;6.60;;;25.10;47.00;;;;;;5088812;28;20035;-39
2022/04/24 11:15:44;;;;;;;8.70;6.90;;;24.60;47.90;;;;;;5084646;28;20461;-39
2022/04/24 11:18:27;;;;;;;8.27;6.20;;;24.20;48.80;;;;;;5101276;28;20123;-39
2022/04/24 11:21:03;;;;;;;9.75;6.88;;;24.00;50.10;;;;;;5108546;28;20528;-40
2022/04/24 11:23:30;;;;;;;9.25;6.38;;;23.40;50.20;;;;;;5108131;28;20212;-39
2022/04/24 11:25:57;;;;;;;11.88;6.57;;;23.90;49.70;;;;;;5109642;28;20142;-39
2022/04/24 11:28:40;;;;;;;8.02;6.95;;;24.00;49.50;;;;;;5109362;28;20019;-40
2022/04/24 11:31:08;;;;;;;9.68;6.55;;;23.60;50.50;;;;;;5109236;28;20454;-40
2022/04/24 11:33:34;;;;;;;10.02;7.78;;;23.70;50.80;;;;;;5108711;28;20074;-40
2022/04/24 11:36:04;;;;;;;7.82;6.20;;;24.30;48.90;;;;;;5109542;28;20099;-38
2022/04/24 11:38:30;;;;;;;12.35;6.75;;;24.90;50.00;;;;;;5108696;28;20046;-38
2022/04/24 11:40:56;;;;;;;8.35;6.15;;;25.70;47.10;;;;;;5092344;28;20024;-39
2022/04/24 11:43:22;;;;;;;8.93;5.97;;;26.10;47.50;;;;;;5107051;28;20020;-39
2022/04/24 11:51:20;;;;;;;13.05;6.95;;;27.60;45.30;;;;;;5109511;28;20220;-38
2022/04/24 11:53:46;;;;;;;9.45;6.60;;;26.70;44.50;;;;;;5108694;28;20028;-39
2022/04/24 11:56:13;;;;;;;9.02;6.68;;;26.00;46.40;;;;;;5109194;28;20023;-38
2022/04/24 11:58:41;;;;;;;9.70;6.13;;;25.60;46.00;;;;;;5109148;28;20046;-38
2022/04/24 12:01:10;;;;;;;7.90;6.15;;;25.20;47.10;;;;;;5108888;28;20096;-40
2022/04/24 12:03:37;;;;;;;11.10;5.55;;;25.00;48.60;;;;;;5108429;28;20024;-38
2022/04/24 12:06:05;;;;;;;10.73;6.95;;;25.40;49.20;;;;;;5109073;28;20392;-39
2022/04/24 12:08:49;;;;;;;9.27;6.82;;;25.10;47.20;;;;;;5108866;28;20325;-39
2022/04/24 12:11:28;;;;;;;8.98;6.88;;;23.90;48.70;;;;;;5107887;28;20048;-39
2022/04/24 12:14:11;;;;;;;9.90;6.63;;;23.60;50.90;;;;;;5107293;28;20021;-39
2022/04/24 12:16:39;;;;;;;11.48;7.03;;;23.10;50.80;;;;;;5088835;28;20069;-39
2022/04/24 12:19:05;;;;;;;8.30;6.80;;;23.10;51.80;;;;;;5104517;28;20032;-39
2022/04/24 12:21:43;;;;;;;10.73;5.95;;;23.20;51.50;;;;;;5108519;28;20058;-40
2022/04/24 12:24:08;;;;;;;10.00;7.13;;;23.20;52.00;;;;;;5109042;28;20396;-40
2022/04/24 12:26:45;;;;;;;8.73;6.20;;;22.70;51.60;;;;;;5108810;28;20031;-40
2022/04/24 12:29:10;;;;;;;12.48;6.88;;;22.80;53.60;;;;;;5107305;28;20051;-40
2022/04/24 12:31:36;;;;;;;14.88;8.10;;;22.80;52.50;;;;;;5106326;28;20024;-39
2022/04/24 12:34:01;;;;;;;10.95;7.30;;;22.70;51.80;;;;;;5108602;28;20035;-38
2022/04/24 12:36:27;;;;;;;10.93;6.05;;;22.80;53.20;;;;;;5108808;28;20030;-41
2022/04/24 12:38:54;;;;;;;8.10;6.20;;;22.60;54.20;;;;;;5109027;28;20032;-38
2022/04/24 12:41:24;;;;;;;10.55;6.80;;;22.40;51.90;;;;;;5108499;28;20132;-39
2022/04/24 12:43:50;;;;;;;14.48;6.75;;;22.20;52.30;;;;;;5108354;28;20092;-41
2022/04/24 12:46:15;;;;;;;9.45;6.93;;;21.50;53.50;;;;;;5091482;28;20035;-40
2022/04/24 12:48:49;;;;;;;12.02;6.78;;;21.20;54.80;;;;;;5101066;28;20087;-39
2022/04/24 12:51:15;;;;;;;12.38;6.15;;;21.10;54.00;;;;;;5108738;28;20500;-38
2022/04/24 12:53:41;;;;;;;12.57;6.35;;;20.60;55.00;;;;;;5108074;28;20035;-38
2022/04/24 12:56:07;;;;;;;10.80;6.13;;;20.30;56.40;;;;;;5108683;28;20024;-40